Time;durP1;ratioP1;P1;durP2;ratioP2;P2;SDS_P1;SDS_P2;PMS_P1;PMS_P2;Temp;Humidity;BMP_temperature;BMP_pressure;BME280_temperature;BME280_humidity;BME280_pressure;Samples;Min_cycle;Max_cycle;Signal;HPM_P1;HPM_P2
2023/08/01 00:01:50;;;;;;;4.70;3.77;;;20.20;99.90;;;;;;5064513;28;20247;-69
2023/08/01 00:04:16;;;;;;;4.93;4.00;;;20.30;99.90;;;;;;5062624;28;20202;-68
2023/08/01 00:06:41;;;;;;;4.03;3.27;;;20.30;99.90;;;;;;5065145;28;20177;-68
2023/08/01 00:09:07;;;;;;;6.80;4.43;;;20.10;99.90;;;;;;5063588;28;20198;-68
2023/08/01 00:11:33;;;;;;;5.30;4.30;;;20.10;99.90;;;;;;5065253;28;20607;-68
2023/08/01 00:13:58;;;;;;;5.57;4.00;;;20.30;99.90;;;;;;5062985;28;20174;-69
2023/08/01 00:16:24;;;;;;;6.33;4.10;;;20.30;99.90;;;;;;5058846;28;20303;-68
2023/08/01 00:18:49;;;;;;;4.60;3.80;;;20.40;99.90;;;;;;5063384;28;20299;-69
2023/08/01 00:21:15;;;;;;;5.80;3.93;;;20.50;99.90;;;;;;5057749;28;20186;-68
2023/08/01 00:23:41;;;;;;;6.90;4.67;;;20.40;99.90;;;;;;5062334;28;20198;-69
2023/08/01 00:26:06;;;;;;;4.43;3.90;;;20.40;99.90;;;;;;5062375;28;20172;-69
2023/08/01 00:28:32;;;;;;;6.43;4.13;;;20.20;99.90;;;;;;5065257;28;20225;-68
2023/08/01 00:31:11;;;;;;;4.57;4.00;;;20.10;99.90;;;;;;5062899;28;20189;-67
2023/08/01 00:33:37;;;;;;;8.23;4.20;;;20.20;99.90;;;;;;5063140;28;20243;-68
2023/08/01 00:36:03;;;;;;;4.50;3.90;;;20.30;99.90;;;;;;5061969;28;20401;-68
2023/08/01 00:38:29;;;;;;;4.70;4.20;;;20.20;99.90;;;;;;5062009;28;20505;-68
2023/08/01 00:40:55;;;;;;;7.20;4.10;;;20.10;99.90;;;;;;5064659;28;21067;-68
2023/08/01 00:43:20;;;;;;;4.73;4.00;;;20.10;99.90;;;;;;5055520;28;20446;-68
2023/08/01 00:45:46;;;;;;;4.37;3.67;;;20.30;99.90;;;;;;5058731;28;20179;-69
2023/08/01 00:48:12;;;;;;;4.33;3.93;;;20.30;99.90;;;;;;5064514;28;20200;-68
2023/08/01 00:50:39;;;;;;;4.67;3.53;;;20.30;99.90;;;;;;5062847;28;20420;-67
2023/08/01 00:53:05;;;;;;;5.43;4.00;;;20.40;99.90;;;;;;5058468;28;20194;-68
2023/08/01 00:55:32;;;;;;;5.40;4.13;;;20.30;99.90;;;;;;5064683;28;20419;-68
2023/08/01 00:57:58;;;;;;;4.80;4.00;;;20.40;99.90;;;;;;5062147;28;20408;-68
2023/08/01 01:00:23;;;;;;;5.13;3.90;;;20.30;99.90;;;;;;5063442;28;20930;-69
2023/08/01 01:02:49;;;;;;;6.00;3.87;;;20.20;99.90;;;;;;5061362;28;20198;-69
2023/08/01 01:05:15;;;;;;;4.47;3.87;;;20.10;99.90;;;;;;5061820;28;20174;-70
2023/08/01 01:07:41;;;;;;;8.00;4.30;;;20.10;99.90;;;;;;5062654;28;20201;-70
2023/08/01 01:10:07;;;;;;;7.27;4.03;;;20.00;99.90;;;;;;5063554;28;20166;-68
2023/08/01 01:12:32;;;;;;;8.10;5.00;;;19.90;99.90;;;;;;5059945;28;20428;-67
2023/08/01 01:14:58;;;;;;;4.63;4.10;;;20.00;99.90;;;;;;5063427;28;20249;-68
2023/08/01 01:17:24;;;;;;;4.03;3.33;;;20.00;99.90;;;;;;5066110;28;20167;-68
2023/08/01 01:19:49;;;;;;;4.63;4.13;;;19.90;99.90;;;;;;5064771;28;20170;-68
2023/08/01 01:22:16;;;;;;;5.57;4.07;;;20.00;99.90;;;;;;5061940;28;20574;-68
2023/08/01 01:24:42;;;;;;;4.20;3.80;;;20.10;99.90;;;;;;5061597;28;20162;-69
2023/08/01 01:27:09;;;;;;;7.87;4.67;;;20.00;99.90;;;;;;5061962;28;20957;-69
2023/08/01 01:29:35;;;;;;;4.17;3.60;;;20.10;99.90;;;;;;5062647;28;20475;-68
2023/08/01 01:32:01;;;;;;;6.20;4.57;;;19.90;99.90;;;;;;5061974;28;20435;-69
2023/08/01 01:34:28;;;;;;;4.73;4.27;;;19.70;99.90;;;;;;5062764;28;20499;-69
2023/08/01 01:36:54;;;;;;;6.27;3.83;;;19.60;99.90;;;;;;5061423;28;20412;-68
2023/08/01 01:39:20;;;;;;;5.07;3.80;;;19.90;99.90;;;;;;5059216;28;20405;-68
2023/08/01 01:41:45;;;;;;;5.33;4.50;;;19.90;99.90;;;;;;5063209;28;20232;-68
2023/08/01 01:44:11;;;;;;;4.73;4.23;;;19.80;99.90;;;;;;5064040;28;20412;-68
2023/08/01 01:46:37;;;;;;;4.43;4.00;;;19.90;99.90;;;;;;5062638;28;20277;-68
2023/08/01 01:49:02;;;;;;;4.80;4.17;;;20.00;99.90;;;;;;5062984;28;20202;-69
2023/08/01 01:51:30;;;;;;;5.90;5.03;;;20.00;99.90;;;;;;5061066;28;20588;-68
2023/08/01 01:53:55;;;;;;;4.53;3.93;;;19.90;99.90;;;;;;5059747;28;20158;-68
2023/08/01 01:56:21;;;;;;;5.93;4.40;;;19.90;99.90;;;;;;5062546;28;20506;-68
2023/08/01 01:58:47;;;;;;;5.53;4.50;;;20.10;99.90;;;;;;5061417;28;20163;-68
2023/08/01 02:01:12;;;;;;;5.73;4.20;;;20.20;99.90;;;;;;5063917;28;20174;-68
2023/08/01 02:03:38;;;;;;;5.83;3.77;;;20.20;99.90;;;;;;5067831;28;20235;-68
2023/08/01 02:06:03;;;;;;;5.40;3.77;;;20.20;99.90;;;;;;5066044;28;20182;-68
2023/08/01 02:08:30;;;;;;;4.13;3.73;;;20.20;99.90;;;;;;5067550;28;20186;-68
2023/08/01 02:10:58;;;;;;;3.63;3.03;;;20.20;99.90;;;;;;5065136;28;20240;-68
2023/08/01 02:13:24;;;;;;;4.93;3.80;;;20.20;99.90;;;;;;5067850;28;20420;-68
2023/08/01 02:15:50;;;;;;;6.07;4.20;;;20.30;99.90;;;;;;5060029;28;20647;-67
2023/08/01 02:18:15;;;;;;;5.23;3.90;;;20.30;99.90;;;;;;5065451;28;20406;-68
2023/08/01 02:20:41;;;;;;;5.83;3.67;;;20.30;99.90;;;;;;5065047;28;20241;-67
2023/08/01 02:23:06;;;;;;;4.73;4.20;;;20.30;99.90;;;;;;5068185;28;20205;-68
2023/08/01 02:25:32;;;;;;;4.60;4.00;;;20.30;99.90;;;;;;5063510;28;20582;-68
2023/08/01 02:27:57;;;;;;;6.67;4.13;;;20.30;99.90;;;;;;5066138;28;20566;-68
2023/08/01 02:30:23;;;;;;;5.33;4.57;;;20.20;99.90;;;;;;5066396;28;20166;-68
2023/08/01 02:32:48;;;;;;;5.23;4.60;;;20.10;99.90;;;;;;5065923;28;20186;-68
2023/08/01 02:35:14;;;;;;;4.70;4.03;;;20.00;99.90;;;;;;5066260;28;20174;-68
2023/08/01 02:37:39;;;;;;;4.80;3.77;;;20.10;99.90;;;;;;5066270;28;20166;-68
2023/08/01 02:40:08;;;;;;;5.80;4.20;;;20.20;99.90;;;;;;5064051;28;20173;-68
2023/08/01 02:42:34;;;;;;;4.97;3.60;;;20.20;99.90;;;;;;5060724;28;20201;-68
2023/08/01 02:44:59;;;;;;;4.50;3.60;;;20.20;99.90;;;;;;5064914;28;20922;-68
2023/08/01 02:47:25;;;;;;;4.83;4.10;;;20.30;99.90;;;;;;5060710;28;20174;-67
2023/08/01 02:49:50;;;;;;;5.50;4.10;;;20.10;99.90;;;;;;5064139;28;20171;-68
2023/08/01 02:52:16;;;;;;;5.40;4.50;;;19.90;99.90;;;;;;5065481;28;20182;-68
2023/08/01 02:54:41;;;;;;;4.40;4.00;;;19.70;99.90;;;;;;5065982;28;20206;-69
2023/08/01 02:57:07;;;;;;;5.50;4.60;;;19.90;99.90;;;;;;5066698;28;20192;-67
2023/08/01 02:59:33;;;;;;;10.57;4.27;;;19.90;99.90;;;;;;5065248;28;20166;-69
2023/08/01 03:01:59;;;;;;;6.37;4.90;;;19.80;99.90;;;;;;5064067;28;20244;-68
2023/08/01 03:04:24;;;;;;;6.63;3.57;;;19.80;99.90;;;;;;5064965;28;20170;-68
2023/08/01 03:06:50;;;;;;;7.57;4.20;;;19.90;99.90;;;;;;5065849;28;20437;-69
2023/08/01 03:09:15;;;;;;;6.60;4.90;;;19.90;99.90;;;;;;5065540;28;20193;-68
2023/08/01 03:11:41;;;;;;;8.40;4.60;;;20.00;99.90;;;;;;5063357;28;20178;-69
2023/08/01 03:14:07;;;;;;;6.10;4.60;;;20.00;99.90;;;;;;5061596;28;20215;-69
2023/08/01 03:16:33;;;;;;;5.30;4.20;;;20.00;99.90;;;;;;5059274;28;20292;-68
2023/08/01 03:19:04;;;;;;;5.03;4.03;;;20.00;99.90;;;;;;5063622;28;20166;-68
2023/08/01 03:21:33;;;;;;;4.47;4.07;;;20.00;99.90;;;;;;5059573;28;20217;-69
2023/08/01 03:23:59;;;;;;;5.17;3.67;;;20.00;99.90;;;;;;5064280;28;20754;-69
2023/08/01 03:26:24;;;;;;;8.10;3.90;;;20.00;99.90;;;;;;5065490;28;20416;-71
2023/08/01 03:28:50;;;;;;;7.63;4.17;;;19.90;99.90;;;;;;5063348;28;20445;-69
2023/08/01 03:31:16;;;;;;;6.10;4.00;;;19.90;99.90;;;;;;5065536;28;20166;-68
2023/08/01 03:33:41;;;;;;;9.80;4.80;;;19.90;99.90;;;;;;5064367;28;20186;-69
2023/08/01 03:36:07;;;;;;;4.93;4.13;;;19.90;99.90;;;;;;5062049;28;20171;-69
2023/08/01 03:38:32;;;;;;;5.40;4.30;;;19.90;99.90;;;;;;5066613;28;20162;-68
2023/08/01 03:40:58;;;;;;;5.20;4.10;;;20.00;99.90;;;;;;5064302;28;20707;-67
2023/08/01 03:43:23;;;;;;;3.67;3.37;;;19.90;99.90;;;;;;5066654;28;20596;-69
2023/08/01 03:45:51;;;;;;;4.53;4.03;;;20.10;99.90;;;;;;5060086;28;20190;-68
2023/08/01 03:48:16;;;;;;;4.13;3.67;;;20.30;99.90;;;;;;5064414;28;20672;-68
2023/08/01 03:50:42;;;;;;;4.43;3.17;;;20.40;99.90;;;;;;5064715;28;20453;-68
2023/08/01 03:53:08;;;;;;;5.77;3.70;;;20.40;99.90;;;;;;5065457;28;20194;-68
2023/08/01 03:55:33;;;;;;;8.00;4.10;;;20.10;99.90;;;;;;5062828;28;20253;-69
2023/08/01 03:57:59;;;;;;;5.90;3.87;;;20.10;99.90;;;;;;5064046;28;20175;-68
2023/08/01 04:00:24;;;;;;;4.30;3.80;;;20.20;99.90;;;;;;5065529;28;20180;-67
2023/08/01 04:02:50;;;;;;;5.50;3.77;;;20.10;99.90;;;;;;5060636;28;20204;-68
2023/08/01 04:05:15;;;;;;;6.90;3.90;;;20.20;99.90;;;;;;5064155;28;20171;-68
2023/08/01 04:07:41;;;;;;;5.70;3.90;;;20.10;99.90;;;;;;5065244;28;20202;-68
2023/08/01 04:10:07;;;;;;;5.40;3.97;;;20.10;99.90;;;;;;5065359;28;20249;-68
2023/08/01 04:12:33;;;;;;;3.70;3.40;;;20.00;99.90;;;;;;5062071;28;20238;-68
2023/08/01 04:14:59;;;;;;;4.37;3.47;;;20.10;99.90;;;;;;5060628;28;20175;-68
2023/08/01 04:17:25;;;;;;;4.10;3.70;;;20.10;99.90;;;;;;5061698;28;20499;-68
2023/08/01 04:19:51;;;;;;;6.93;3.90;;;20.10;99.90;;;;;;5062856;28;20409;-68
2023/08/01 04:22:16;;;;;;;5.87;4.07;;;20.00;99.90;;;;;;5062859;28;20202;-67
2023/08/01 04:24:42;;;;;;;4.10;3.53;;;20.00;99.90;;;;;;5063779;28;20285;-67
2023/08/01 04:27:07;;;;;;;5.73;3.87;;;19.90;99.90;;;;;;5064377;28;20626;-67
2023/08/01 04:29:33;;;;;;;6.40;3.80;;;19.80;99.90;;;;;;5063620;28;20201;-67
2023/08/01 04:31:58;;;;;;;4.83;3.50;;;19.80;99.90;;;;;;5061285;28;20194;-67
2023/08/01 04:34:24;;;;;;;8.40;4.83;;;19.90;99.90;;;;;;5063348;28;20231;-67
2023/08/01 04:36:49;;;;;;;4.00;3.60;;;19.90;99.90;;;;;;5063278;28;20179;-67
2023/08/01 04:39:15;;;;;;;7.20;3.37;;;19.80;99.90;;;;;;5064800;28;20181;-68
2023/08/01 04:41:40;;;;;;;7.30;3.87;;;19.90;99.90;;;;;;5061609;28;20272;-66
2023/08/01 04:44:06;;;;;;;8.00;3.80;;;19.80;99.90;;;;;;5061880;28;20177;-69
2023/08/01 04:46:32;;;;;;;5.33;3.83;;;19.70;99.90;;;;;;5058060;28;20657;-68
2023/08/01 04:48:58;;;;;;;5.03;4.00;;;19.70;99.90;;;;;;5061675;28;20194;-69
2023/08/01 04:51:24;;;;;;;4.70;3.83;;;19.80;99.90;;;;;;5059883;28;20413;-69
2023/08/01 04:53:50;;;;;;;4.33;3.27;;;19.80;99.90;;;;;;5060475;28;20405;-69
2023/08/01 04:56:16;;;;;;;5.47;3.90;;;19.90;99.90;;;;;;5065320;28;20887;-69
2023/08/01 04:58:41;;;;;;;3.97;3.50;;;19.90;99.90;;;;;;5064175;28;20200;-68
2023/08/01 05:01:07;;;;;;;4.07;3.57;;;19.90;99.90;;;;;;5063615;28;20185;-67
2023/08/01 05:03:32;;;;;;;6.03;3.53;;;20.00;99.90;;;;;;5063935;28;20194;-67
2023/08/01 05:05:58;;;;;;;5.20;3.50;;;20.10;99.90;;;;;;5061383;28;20512;-67
2023/08/01 05:08:24;;;;;;;4.60;3.17;;;20.10;99.90;;;;;;5061022;28;20219;-67
2023/08/01 05:10:50;;;;;;;6.00;3.70;;;20.10;99.90;;;;;;5059969;28;20186;-68
2023/08/01 05:13:15;;;;;;;4.93;3.63;;;20.20;99.90;;;;;;5059773;28;20655;-67
2023/08/01 05:15:44;;;;;;;6.70;3.30;;;20.10;99.90;;;;;;5061370;28;20445;-67
2023/08/01 05:18:09;;;;;;;5.37;3.57;;;20.10;99.90;;;;;;5062092;28;20257;-67
2023/08/01 05:20:35;;;;;;;4.63;3.53;;;20.30;99.90;;;;;;5064124;28;20498;-69
2023/08/01 05:23:00;;;;;;;5.00;3.70;;;20.20;99.90;;;;;;5062051;28;20202;-67
2023/08/01 05:25:26;;;;;;;4.00;3.60;;;20.40;99.90;;;;;;5063516;28;20170;-69
2023/08/01 05:27:51;;;;;;;4.70;4.20;;;20.60;99.90;;;;;;5061283;28;20727;-69
2023/08/01 05:30:17;;;;;;;5.03;3.87;;;20.70;99.90;;;;;;5063447;28;20523;-68
2023/08/01 05:32:43;;;;;;;5.60;4.00;;;20.70;99.90;;;;;;5062871;28;20237;-68
2023/08/01 05:35:09;;;;;;;4.90;4.37;;;20.70;99.90;;;;;;5061949;28;20531;-69
2023/08/01 05:37:35;;;;;;;5.20;4.03;;;20.70;99.90;;;;;;5062895;28;20401;-68
2023/08/01 05:40:03;;;;;;;4.40;3.87;;;20.80;99.90;;;;;;5065223;28;20538;-68
2023/08/01 05:42:28;;;;;;;7.40;4.00;;;20.90;99.90;;;;;;5065410;28;20178;-69
2023/08/01 05:44:54;;;;;;;5.10;4.20;;;20.70;99.90;;;;;;5069720;28;20401;-68
2023/08/01 05:47:19;;;;;;;6.10;3.90;;;20.80;99.90;;;;;;5067525;28;20229;-68
2023/08/01 05:49:45;;;;;;;4.27;3.87;;;20.80;99.90;;;;;;5065250;28;20655;-69
2023/08/01 05:52:10;;;;;;;5.53;4.70;;;20.80;99.90;;;;;;5061713;28;20315;-68
2023/08/01 05:54:36;;;;;;;6.77;3.97;;;20.70;99.90;;;;;;5066909;28;20602;-68
2023/08/01 05:57:02;;;;;;;8.50;4.60;;;20.80;99.90;;;;;;5065036;28;20167;-68
2023/08/01 05:59:27;;;;;;;5.40;3.93;;;21.00;99.90;;;;;;5063235;28;20198;-68
2023/08/01 06:01:53;;;;;;;6.67;4.00;;;21.10;99.90;;;;;;5064788;28;20233;-68
2023/08/01 06:04:18;;;;;;;6.20;3.93;;;20.80;99.90;;;;;;5066517;28;20170;-68
2023/08/01 06:06:44;;;;;;;5.80;4.70;;;21.00;99.90;;;;;;5067410;28;20245;-68
2023/08/01 06:09:10;;;;;;;5.67;5.07;;;20.80;99.90;;;;;;5060221;28;20230;-69
2023/08/01 06:11:35;;;;;;;5.33;4.53;;;20.70;99.90;;;;;;5064307;28;20508;-68
2023/08/01 06:14:01;;;;;;;5.47;3.87;;;20.80;99.90;;;;;;5065371;28;20606;-68
2023/08/01 06:16:26;;;;;;;5.17;3.93;;;20.60;99.90;;;;;;5063390;28;20782;-67
2023/08/01 06:18:52;;;;;;;4.33;3.93;;;20.60;99.90;;;;;;5067308;28;20181;-68
2023/08/01 06:21:18;;;;;;;5.53;3.87;;;20.70;99.90;;;;;;5066359;28;20193;-69
2023/08/01 06:23:44;;;;;;;4.73;3.70;;;20.70;99.90;;;;;;5065822;28;20206;-68
2023/08/01 06:26:10;;;;;;;6.67;4.50;;;20.40;99.90;;;;;;5067015;28;20788;-68
2023/08/01 06:28:35;;;;;;;4.90;4.13;;;20.30;99.90;;;;;;5065898;28;20193;-68
2023/08/01 06:31:01;;;;;;;6.47;4.80;;;20.40;99.90;;;;;;5064255;28;20572;-69
2023/08/01 06:33:26;;;;;;;9.50;5.23;;;20.20;99.90;;;;;;5063980;28;20264;-69
2023/08/01 06:35:52;;;;;;;8.90;5.10;;;20.00;99.90;;;;;;5065117;28;20197;-68
2023/08/01 06:38:17;;;;;;;7.30;5.20;;;19.80;99.90;;;;;;5066919;28;20292;-68
2023/08/01 06:40:43;;;;;;;5.40;4.87;;;19.80;99.90;;;;;;5064369;28;20178;-68
2023/08/01 06:43:08;;;;;;;5.67;5.07;;;19.80;99.90;;;;;;5064766;28;20269;-68
2023/08/01 06:45:34;;;;;;;8.87;5.17;;;19.50;99.90;;;;;;5063528;28;20181;-69
2023/08/01 06:48:00;;;;;;;6.47;5.30;;;19.50;99.90;;;;;;5059904;28;20237;-69
2023/08/01 06:50:25;;;;;;;8.03;6.33;;;19.40;99.90;;;;;;5065082;28;20163;-68
2023/08/01 06:52:51;;;;;;;9.90;6.20;;;19.30;99.90;;;;;;5059357;28;20198;-68
2023/08/01 06:55:16;;;;;;;12.40;6.93;;;19.20;99.90;;;;;;5065556;28;20194;-68
2023/08/01 06:57:42;;;;;;;7.63;5.60;;;19.10;99.90;;;;;;5065043;28;20257;-68
2023/08/01 07:00:08;;;;;;;6.60;5.93;;;19.30;99.90;;;;;;5060936;28;20175;-68
2023/08/01 07:02:34;;;;;;;8.77;6.83;;;19.30;99.90;;;;;;5057395;28;20268;-68
2023/08/01 07:04:59;;;;;;;7.80;6.47;;;19.20;99.90;;;;;;5052971;28;20444;-69
2023/08/01 07:07:25;;;;;;;9.03;7.80;;;19.20;99.90;;;;;;5059253;28;20177;-68
2023/08/01 07:09:50;;;;;;;7.40;6.07;;;19.40;99.90;;;;;;5059393;28;20516;-68
2023/08/01 07:12:16;;;;;;;10.03;6.77;;;19.40;99.90;;;;;;5055817;28;20244;-68
2023/08/01 07:14:41;;;;;;;7.77;6.97;;;19.60;99.90;;;;;;5062972;28;20250;-70
2023/08/01 07:17:07;;;;;;;10.70;6.33;;;19.90;99.90;;;;;;5054973;28;20196;-69
2023/08/01 07:19:32;;;;;;;7.43;6.20;;;19.80;99.90;;;;;;5059478;28;20175;-70
2023/08/01 07:21:58;;;;;;;8.60;5.70;;;19.90;99.90;;;;;;5056587;28;20206;-70
2023/08/01 07:24:23;;;;;;;10.27;6.97;;;20.00;99.90;;;;;;5060675;28;20181;-69
2023/08/01 07:26:49;;;;;;;8.57;6.50;;;19.80;99.90;;;;;;5058206;28;20178;-69
2023/08/01 07:29:15;;;;;;;7.57;5.93;;;19.60;99.90;;;;;;5063586;28;20189;-67
2023/08/01 07:31:41;;;;;;;12.00;6.37;;;19.50;99.90;;;;;;5063080;28;20183;-69
2023/08/01 07:34:07;;;;;;;7.27;5.77;;;19.20;99.90;;;;;;5063745;28;20401;-70
2023/08/01 07:36:33;;;;;;;6.57;5.87;;;19.10;99.90;;;;;;5064907;28;20727;-69
2023/08/01 07:38:58;;;;;;;12.23;7.43;;;19.20;99.90;;;;;;5065328;28;20166;-69
2023/08/01 07:41:24;;;;;;;7.93;5.77;;;19.20;99.90;;;;;;5062834;28;20169;-69
2023/08/01 07:43:49;;;;;;;10.10;7.23;;;19.00;99.90;;;;;;5065658;28;20245;-69
2023/08/01 07:46:15;;;;;;;7.80;6.50;;;18.90;99.90;;;;;;5060896;28;20194;-69
2023/08/01 07:48:40;;;;;;;6.93;5.60;;;19.00;99.90;;;;;;5059017;28;20186;-69
2023/08/01 07:51:07;;;;;;;7.30;5.17;;;18.80;99.90;;;;;;5056408;28;20556;-69
2023/08/01 07:53:34;;;;;;;9.30;6.90;;;18.70;99.90;;;;;;5048122;28;20648;-69
2023/08/01 07:56:01;;;;;;;6.77;4.77;;;18.80;99.90;;;;;;5062544;28;20477;-68
2023/08/01 07:58:27;;;;;;;11.50;5.47;;;18.60;99.90;;;;;;5058850;28;20401;-69
2023/08/01 08:00:53;;;;;;;5.10;4.60;;;18.60;99.90;;;;;;5063943;28;20413;-68
2023/08/01 08:03:22;;;;;;;6.33;5.03;;;18.70;99.90;;;;;;5062291;28;20421;-69
2023/08/01 08:05:48;;;;;;;5.03;4.13;;;18.70;99.90;;;;;;5065167;28;20169;-69
2023/08/01 08:08:13;;;;;;;4.50;3.80;;;18.70;99.90;;;;;;5084133;22;20499;-69
2023/08/01 08:10:39;;;;;;;5.33;4.13;;;18.60;99.90;;;;;;5059843;28;20411;-68
2023/08/01 08:13:04;;;;;;;5.70;4.03;;;18.70;99.90;;;;;;5063385;28;20181;-69
2023/08/01 08:15:34;;;;;;;5.50;3.87;;;18.80;99.90;;;;;;5064580;28;20689;-69
2023/08/01 08:18:04;;;;;;;3.97;3.60;;;19.10;99.90;;;;;;5048121;28;20194;-69
2023/08/01 08:20:30;;;;;;;4.80;3.23;;;19.10;99.90;;;;;;5042941;28;20410;-70
2023/08/01 08:22:55;;;;;;;4.40;4.00;;;19.00;99.90;;;;;;5043980;28;20409;-69
2023/08/01 08:25:21;;;;;;;4.10;3.53;;;19.10;99.90;;;;;;5044311;28;20816;-69
2023/08/01 08:27:48;;;;;;;3.30;3.00;;;19.20;99.90;;;;;;5042594;28;20214;-69
2023/08/01 08:30:13;;;;;;;3.07;2.70;;;19.20;99.90;;;;;;5041946;28;20170;-69
2023/08/01 08:32:39;;;;;;;4.00;3.40;;;19.20;99.90;;;;;;5043135;28;20402;-69
2023/08/01 08:35:04;;;;;;;4.80;2.77;;;19.30;99.90;;;;;;5043383;28;20232;-69
2023/08/01 08:37:30;;;;;;;3.20;2.90;;;19.30;99.90;;;;;;5042968;28;20186;-69
2023/08/01 08:39:56;;;;;;;3.40;3.10;;;19.30;99.90;;;;;;5041710;28;20244;-69
2023/08/01 08:42:21;;;;;;;4.07;3.20;;;19.30;99.90;;;;;;5042150;28;20163;-69
2023/08/01 08:44:50;;;;;;;4.50;3.50;;;19.60;99.90;;;;;;5042355;28;20175;-69
2023/08/01 08:47:18;;;;;;;4.27;3.20;;;19.70;99.90;;;;;;5045727;28;20179;-69
2023/08/01 08:49:44;;;;;;;3.27;2.90;;;20.00;99.90;;;;;;5042966;28;20829;-69
2023/08/01 08:52:11;;;;;;;5.40;3.47;;;20.10;99.90;;;;;;5043409;28;20904;-70
2023/08/01 08:54:38;;;;;;;5.17;3.47;;;20.10;99.90;;;;;;5044124;28;20409;-69
2023/08/01 08:57:06;;;;;;;3.53;3.20;;;20.20;99.90;;;;;;5042026;28;20430;-69
2023/08/01 08:59:33;;;;;;;5.40;3.30;;;20.60;99.90;;;;;;5041500;28;20410;-69
2023/08/01 09:02:01;;;;;;;3.93;3.07;;;20.80;99.90;;;;;;5042582;28;20406;-69
2023/08/01 09:04:27;;;;;;;3.93;3.47;;;20.90;99.90;;;;;;5041779;28;20422;-69
2023/08/01 09:06:57;;;;;;;4.00;3.60;;;21.00;99.90;;;;;;5043503;28;20483;-69
2023/08/01 09:09:26;;;;;;;3.20;2.90;;;21.00;99.90;;;;;;5041103;28;20484;-69
2023/08/01 09:11:52;;;;;;;3.40;3.10;;;20.90;99.90;;;;;;5044219;28;20905;-69
2023/08/01 09:14:19;;;;;;;4.20;3.00;;;20.60;99.90;;;;;;5047160;28;20401;-69
2023/08/01 09:16:46;;;;;;;2.93;2.53;;;20.40;99.90;;;;;;5049748;28;20499;-69
2023/08/01 09:19:21;;;;;;;4.03;2.80;;;20.30;99.90;;;;;;5043796;28;20437;-70
2023/08/01 09:21:47;;;;;;;3.20;2.77;;;20.30;99.90;;;;;;5045348;28;20401;-70
2023/08/01 09:24:13;;;;;;;3.63;3.20;;;20.40;99.90;;;;;;5047236;28;20405;-69
2023/08/01 09:26:39;;;;;;;2.97;2.73;;;20.50;99.90;;;;;;5060838;28;20964;-69
2023/08/01 09:29:06;;;;;;;3.03;2.63;;;20.60;99.90;;;;;;5064714;28;20194;-69
2023/08/01 09:31:34;;;;;;;3.77;2.70;;;20.60;99.90;;;;;;5062100;28;20401;-70
2023/08/01 09:34:01;;;;;;;4.40;2.10;;;20.70;99.90;;;;;;5062657;28;20411;-69
2023/08/01 09:36:27;;;;;;;3.00;2.33;;;20.80;99.90;;;;;;5061189;28;20398;-66
2023/08/01 09:39:01;;;;;;;2.37;2.17;;;20.80;99.90;;;;;;5065027;28;20401;-69
2023/08/01 09:41:31;;;;;;;3.20;2.47;;;20.70;99.90;;;;;;5063066;28;20193;-69
2023/08/01 09:43:57;;;;;;;2.40;1.97;;;20.80;99.90;;;;;;5065622;28;20431;-69
2023/08/01 09:46:24;;;;;;;3.17;1.77;;;21.20;99.90;;;;;;5062484;28;20418;-69
2023/08/01 09:48:50;;;;;;;1.83;1.60;;;21.40;99.90;;;;;;5060230;28;20800;-69
2023/08/01 09:51:17;;;;;;;2.30;1.80;;;21.50;99.90;;;;;;5045014;28;20405;-69
2023/08/01 09:53:56;;;;;;;1.70;1.60;;;21.30;99.90;;;;;;5049260;28;20177;-69
2023/08/01 09:56:26;;;;;;;1.80;1.50;;;21.10;99.90;;;;;;5047112;28;20440;-69
2023/08/01 09:58:54;;;;;;;1.90;1.60;;;21.30;99.90;;;;;;5046496;28;20413;-69
2023/08/01 10:01:21;;;;;;;1.87;1.10;;;21.50;99.90;;;;;;5045076;28;20425;-68
2023/08/01 10:03:48;;;;;;;1.67;1.00;;;21.70;99.90;;;;;;5046286;28;20485;-69
2023/08/01 10:06:19;;;;;;;2.90;1.23;;;21.80;99.90;;;;;;5046684;28;20497;-69
2023/08/01 10:08:45;;;;;;;3.73;1.60;;;21.90;99.90;;;;;;5045456;28;20796;-70
2023/08/01 10:11:14;;;;;;;1.07;0.80;;;22.00;99.90;;;;;;5045591;28;20426;-69
2023/08/01 10:13:41;;;;;;;1.20;0.90;;;21.90;99.90;;;;;;5044121;28;20415;-69
2023/08/01 10:16:07;;;;;;;1.43;0.90;;;22.00;99.90;;;;;;5047005;28;21021;-69
2023/08/01 10:18:34;;;;;;;1.37;1.00;;;21.90;99.90;;;;;;5048765;28;20501;-69
2023/08/01 10:21:01;;;;;;;1.13;0.90;;;21.30;99.90;;;;;;5047492;28;20409;-69
2023/08/01 10:23:27;;;;;;;1.17;0.70;;;21.30;99.90;;;;;;5046336;28;20938;-69
2023/08/01 10:25:53;;;;;;;1.00;0.80;;;21.40;99.90;;;;;;5045104;28;20998;-69
2023/08/01 10:28:19;;;;;;;1.10;0.70;;;21.00;99.90;;;;;;5045096;28;20813;-69
2023/08/01 10:30:45;;;;;;;1.00;0.87;;;21.10;99.90;;;;;;5047007;28;20401;-68
2023/08/01 10:33:12;;;;;;;1.37;1.00;;;21.30;99.90;;;;;;5044011;28;20178;-68
2023/08/01 10:35:40;;;;;;;1.20;0.80;;;21.60;99.90;;;;;;5045508;28;20155;-68
2023/08/01 10:38:10;;;;;;;1.00;0.60;;;21.80;99.90;;;;;;5043685;28;20434;-69
2023/08/01 10:40:38;;;;;;;1.60;0.83;;;22.40;99.90;;;;;;5042049;28;20397;-69
2023/08/01 10:43:04;;;;;;;1.50;0.97;;;22.40;99.90;;;;;;5042248;28;20410;-69
2023/08/01 10:45:29;;;;;;;1.10;0.60;;;22.20;99.90;;;;;;5044350;28;20794;-68
2023/08/01 10:48:10;;;;;;;1.10;0.70;;;22.30;99.90;;;;;;5045279;28;20552;-69
2023/08/01 10:50:35;;;;;;;1.03;0.90;;;22.70;99.90;;;;;;5044691;28;20191;-69
2023/08/01 10:53:09;;;;;;;1.20;0.80;;;22.80;99.90;;;;;;5047870;28;20445;-69
2023/08/01 10:55:40;;;;;;;1.53;0.77;;;22.90;99.90;;;;;;5046515;28;20166;-69
2023/08/01 10:58:06;;;;;;;1.10;0.77;;;22.80;99.90;;;;;;5049201;28;20436;-70
2023/08/01 11:00:31;;;;;;;1.00;0.80;;;22.30;99.90;;;;;;5044386;28;20492;-69
2023/08/01 11:02:57;;;;;;;0.87;0.73;;;22.20;99.90;;;;;;5046345;28;20401;-69
2023/08/01 11:05:28;;;;;;;1.10;0.90;;;22.30;99.90;;;;;;5048196;28;20546;-69
2023/08/01 11:07:58;;;;;;;1.33;0.80;;;22.20;99.90;;;;;;5043204;28;20261;-69
2023/08/01 11:10:26;;;;;;;0.93;0.83;;;22.40;99.90;;;;;;5045595;28;20401;-69
2023/08/01 11:12:53;;;;;;;1.40;0.97;;;22.50;99.90;;;;;;5041668;28;20395;-70
2023/08/01 11:15:18;;;;;;;1.57;1.00;;;22.40;99.90;;;;;;5048524;28;20935;-69
2023/08/01 11:17:52;;;;;;;1.23;0.80;;;22.20;99.90;;;;;;5045010;28;20417;-70
2023/08/01 11:20:23;;;;;;;1.20;1.00;;;22.10;99.90;;;;;;5043583;28;20188;-70
2023/08/01 11:23:00;;;;;;;1.77;0.80;;;22.00;99.90;;;;;;5043302;28;20452;-69
2023/08/01 11:25:45;;;;;;;2.87;1.10;;;22.00;99.90;;;;;;5043910;28;20408;-70
2023/08/01 11:28:12;;;;;;;1.10;0.97;;;22.70;99.90;;;;;;5043196;28;20456;-69
2023/08/01 11:30:38;;;;;;;1.40;1.07;;;23.90;99.90;;;;;;5045756;28;20407;-70
2023/08/01 11:33:21;;;;;;;1.50;1.20;;;24.80;99.90;;;;;;5042865;28;20398;-69
2023/08/01 11:35:52;;;;;;;1.70;1.00;;;25.10;99.90;;;;;;5040042;28;20167;-70
2023/08/01 11:38:17;;;;;;;1.20;1.10;;;25.60;99.90;;;;;;5044474;28;20420;-70
2023/08/01 11:40:43;;;;;;;1.37;0.90;;;26.30;99.90;;;;;;5045682;28;20845;-70
2023/08/01 11:43:09;;;;;;;2.60;1.10;;;26.50;98.20;;;;;;5042247;28;20678;-70
2023/08/01 11:45:35;;;;;;;1.87;1.33;;;26.30;98.70;;;;;;5048745;28;20414;-70
2023/08/01 11:48:01;;;;;;;1.90;1.17;;;26.40;98.00;;;;;;5044359;28;20202;-70
2023/08/01 11:50:27;;;;;;;1.93;1.33;;;26.30;97.60;;;;;;5043907;28;20175;-70
2023/08/01 11:52:52;;;;;;;2.10;1.13;;;26.80;96.60;;;;;;5047114;28;20424;-69
2023/08/01 11:55:23;;;;;;;2.10;1.33;;;26.90;96.20;;;;;;5039467;28;20167;-69
2023/08/01 11:57:53;;;;;;;2.23;1.10;;;27.50;95.10;;;;;;5041201;28;20202;-70
2023/08/01 12:00:27;;;;;;;1.67;1.57;;;28.30;93.40;;;;;;5046640;28;20401;-70
2023/08/01 12:03:07;;;;;;;2.03;1.27;;;27.30;94.50;;;;;;5042952;28;20448;-71
2023/08/01 12:05:33;;;;;;;1.40;1.30;;;26.80;94.60;;;;;;5037852;28;20399;-70
2023/08/01 12:08:12;;;;;;;1.40;1.10;;;27.30;94.50;;;;;;5045270;28;20812;-71
2023/08/01 12:10:45;;;;;;;3.10;1.40;;;27.60;93.50;;;;;;5041586;28;20953;-71
2023/08/01 12:13:24;;;;;;;1.40;1.13;;;26.90;93.90;;;;;;5038945;28;20972;-71
2023/08/01 12:15:52;;;;;;;1.77;1.17;;;26.10;95.20;;;;;;5047425;28;20421;-71
2023/08/01 12:18:29;;;;;;;3.10;1.37;;;26.40;95.10;;;;;;5046676;28;20455;-71
2023/08/01 12:20:55;;;;;;;1.87;1.40;;;27.60;95.20;;;;;;5047163;28;20413;-71
2023/08/01 12:23:21;;;;;;;1.37;1.20;;;28.80;91.50;;;;;;5046507;28;20594;-71
2023/08/01 12:25:47;;;;;;;1.53;0.90;;;29.10;90.40;;;;;;5042615;28;20488;-71
2023/08/01 12:28:14;;;;;;;2.43;1.83;;;28.80;90.60;;;;;;5044998;28;20286;-71
2023/08/01 12:30:43;;;;;;;4.23;1.30;;;28.20;90.60;;;;;;5043380;28;20827;-71
2023/08/01 12:33:09;;;;;;;3.03;1.47;;;27.30;91.30;;;;;;5045585;28;20892;-70
2023/08/01 12:35:38;;;;;;;2.70;1.40;;;27.50;91.40;;;;;;5044177;28;20451;-68
2023/08/01 12:38:04;;;;;;;2.60;1.40;;;28.00;91.10;;;;;;5041154;28;20696;-68
2023/08/01 12:40:29;;;;;;;2.03;1.37;;;28.30;90.00;;;;;;5045687;28;20414;-68
2023/08/01 12:42:55;;;;;;;1.90;1.80;;;28.20;91.10;;;;;;5040598;28;20202;-68